»·PEaware :: N815M KSAN-KONT

N815M :: KSAN-KONT

FLIGHT INFORMATION

Flight Status: Arrived
Operator: Privately registered:
United States
More flights under this callsign
Pilot: Robert C. (30425)
Aircraft: BEECH AIRCRAFT DEBONAIR BONANZA
(BE33)
More flights by this aircraft type
Origin: KSAN San Diego Intl-Lindbergh
United States
Destination: KONT Ontario Intl
United States
More flights between these airports :: More routes between these airports
Route: +OCN V23 DANAH V363 POXKU V8 PDZ
File this flight plan on PilotEdge
Remarks: TEC route SANP19
Altitude:
(Current/Filed)
6,000ft
Speed:
(Current/Filed)
150kts
Departed: 26-Sep-20 07:23 PM
Arrived: 26-Sep-20 08:09 PM
Distance/Time
Traveled:
82nm/0:46
Distance/Time
To Go:
Arrived

Flight Plot

Page will automatically refresh every two minutes.


Map Options




Map Legend


Flown Route
Filed Route
Departure Airport
Arrival Airport
Navaid (VOR, NDB)
Fix

Horizontal Profiles

Position Reports

Time Latitude Longitude Heading Altitude Ground
Speed
26-Sep-20 18:41 32.732383 -117.177889 0 20ft 0kts
26-Sep-20 18:42 32.732383 -117.177889 194 20ft 0kts
26-Sep-20 18:43 32.732383 -117.177889 194 20ft 0kts
26-Sep-20 18:44 32.732383 -117.177889 194 20ft 0kts
26-Sep-20 18:45 32.732383 -117.177889 193 20ft 0kts
26-Sep-20 18:46 32.732383 -117.177889 193 20ft 0kts
26-Sep-20 18:47 32.732384 -117.177889 193 20ft 0kts
26-Sep-20 18:48 32.733353 -117.181351 193 20ft 0kts
26-Sep-20 18:49 32.732012 -117.176220 194 20ft 0kts
26-Sep-20 18:50 32.732012 -117.176220 194 20ft 0kts
26-Sep-20 18:51 32.732012 -117.176220 194 20ft 0kts
26-Sep-20 18:52 32.732012 -117.176220 194 20ft 0kts
26-Sep-20 18:53 32.732012 -117.176220 194 20ft 0kts
26-Sep-20 18:54 32.732012 -117.176220 194 20ft 0kts
26-Sep-20 18:55 32.732012 -117.176220 194 20ft 0kts
26-Sep-20 18:56 32.732012 -117.176220 194 20ft 0kts
26-Sep-20 18:57 32.732012 -117.176220 194 20ft 0kts
26-Sep-20 18:58 32.732012 -117.176220 194 20ft 0kts
26-Sep-20 18:59 32.732012 -117.176220 194 20ft 0kts
26-Sep-20 19:00 32.732012 -117.176220 194 20ft 0kts
26-Sep-20 19:01 32.732012 -117.176220 193 20ft 0kts
26-Sep-20 19:02 32.732012 -117.176220 193 20ft 0kts
26-Sep-20 19:03 32.732012 -117.176220 193 20ft 0kts
26-Sep-20 19:04 32.732012 -117.176220 193 20ft 0kts
26-Sep-20 19:05 32.732012 -117.176220 193 20ft 0kts
26-Sep-20 19:06 32.732012 -117.176220 193 20ft 0kts
26-Sep-20 19:07 32.732012 -117.176220 193 20ft 0kts
26-Sep-20 19:08 32.732012 -117.176220 193 20ft 0kts
26-Sep-20 19:09 32.732012 -117.176220 193 20ft 0kts
26-Sep-20 19:10 32.732012 -117.176220 193 20ft 0kts
26-Sep-20 19:11 32.732012 -117.176220 193 20ft 0kts
26-Sep-20 19:12 32.732012 -117.176220 193 20ft 0kts
26-Sep-20 19:13 32.732012 -117.176220 193 20ft 0kts
26-Sep-20 19:14 32.732012 -117.176220 193 20ft 0kts
26-Sep-20 19:15 32.732012 -117.176220 193 20ft 0kts
26-Sep-20 19:16 32.732012 -117.176220 193 20ft 0kts
26-Sep-20 19:17 32.731000 -117.175620 152 20ft 0kts
26-Sep-20 19:18 32.731000 -117.175620 152 20ft 0kts
26-Sep-20 19:19 32.731000 -117.175620 152 20ft 0kts
26-Sep-20 19:20 32.730999 -117.175619 151 20ft 0kts
26-Sep-20 19:21 32.730309 -117.176252 284 20ft 23kts
26-Sep-20 19:22 32.736625 -117.206077 285 535ft 108kts
26-Sep-20 19:23 32.763733 -117.236343 319 1380ft 149kts
26-Sep-20 19:24 32.799616 -117.271901 319 2171ft 156kts
26-Sep-20 19:25 32.835164 -117.307317 319 3028ft 152kts
26-Sep-20 19:26 32.870319 -117.342804 319 3905ft 147kts
26-Sep-20 19:27 32.903380 -117.376635 319 4775ft 142kts
26-Sep-20 19:28 32.933610 -117.406400 319 5707ft 127kts
26-Sep-20 19:29 32.964973 -117.436554 319 5988ft 150kts
26-Sep-20 19:30 33.003627 -117.461537 348 5971ft 159kts
26-Sep-20 19:31 33.048763 -117.469325 349 5976ft 159kts
26-Sep-20 19:32 33.094125 -117.476888 349 5976ft 160kts
26-Sep-20 19:33 33.138312 -117.484102 349 5977ft 158kts
26-Sep-20 19:34 33.182866 -117.491458 349 5978ft 159kts
26-Sep-20 19:35 33.227974 -117.499045 349 5979ft 159kts
26-Sep-20 19:36 33.273352 -117.506820 349 5980ft 159kts
26-Sep-20 19:37 33.312032 -117.513530 349 5981ft 159kts
26-Sep-20 19:38 33.348163 -117.543520 315 5980ft 156kts
26-Sep-20 19:39 33.380234 -117.580601 314 6008ft 155kts
26-Sep-20 19:40 33.411349 -117.616912 314 6008ft 156kts
26-Sep-20 19:41 33.443651 -117.654691 314 6007ft 156kts
26-Sep-20 19:42 33.475402 -117.691725 317 6002ft 157kts
26-Sep-20 19:43 33.518533 -117.704103 347 6003ft 160kts
26-Sep-20 19:44 33.562996 -117.712070 348 6002ft 160kts
26-Sep-20 19:45 33.607310 -117.719568 348 6000ft 160kts
26-Sep-20 19:46 33.651723 -117.727031 348 5999ft 160kts
26-Sep-20 19:47 33.694618 -117.739929 336 5998ft 158kts
26-Sep-20 19:48 33.735709 -117.759194 335 5997ft 158kts
26-Sep-20 19:49 33.777049 -117.778631 337 5995ft 158kts
26-Sep-20 19:50 33.822265 -117.781742 355 5993ft 161kts
26-Sep-20 19:52 33.858943 -117.758762 67 5991ft 169kts
26-Sep-20 19:53 33.873703 -117.703125 70 5676ft 176kts
26-Sep-20 19:54 33.888421 -117.646117 70 5135ft 166kts
26-Sep-20 19:55 33.902112 -117.591803 70 4974ft 144kts
26-Sep-20 19:56 33.913008 -117.546361 70 4973ft 118kts
26-Sep-20 19:57 33.926958 -117.509715 52 4998ft 134kts
26-Sep-20 19:58 33.950848 -117.465512 53 4987ft 160kts
26-Sep-20 19:59 33.977436 -117.416974 53 4986ft 167kts
26-Sep-20 20:00 34.005188 -117.366768 53 4987ft 170kts
26-Sep-20 20:01 34.035729 -117.318907 17 4638ft 181kts
26-Sep-20 20:02 34.055294 -117.362703 268 4250ft 166kts
26-Sep-20 20:03 34.054841 -117.418283 269 3441ft 156kts
26-Sep-20 20:04 34.054821 -117.457947 269 3403ft 109kts
26-Sep-20 20:05 34.054455 -117.494616 267 3218ft 97kts
26-Sep-20 20:06 34.054123 -117.530079 270 2031ft 106kts
26-Sep-20 20:07 34.054973 -117.561393 267 1319ft 82kts
26-Sep-20 20:08 34.054919 -117.587426 266 927ft 54kts
26-Sep-20 20:09 34.053999 -117.594508 235 920ft 4kts
26-Sep-20 20:09 34.053854 -117.597195 268 920ft 26kts
26-Sep-20 20:10 34.053854 -117.609700 271 925ft 30kts
26-Sep-20 20:11 34.053382 -117.615125 159 930ft 8kts
26-Sep-20 20:13 34.053375 -117.610616 97 924ft 28kts
26-Sep-20 20:13 34.052524 -117.609525 10 918ft 5kts
26-Sep-20 20:14 34.052887 -117.609497 3 920ft 0kts
26-Sep-20 20:15 34.052887 -117.609497 3 920ft 0kts
26-Sep-20 20:16 34.052887 -117.609497 3 920ft 0kts

Navigation Log

Ident Type
Flight plan parsing failed, navigation log unavailable